sensor_id;sensor_type;location;lat;lon;timestamp;P1;durP1;ratioP1;P2;durP2;ratioP2
12721;SDS011;6425;50.316;8.114;2023-08-12T00:00:00;15.5;;;6.6;;
12721;SDS011;6425;50.316;8.114;2023-08-12T00:03:00;14.3;;;5.9;;
12721;SDS011;6425;50.316;8.114;2023-08-12T00:06:00;11.8;;;6.5;;
12721;SDS011;6425;50.316;8.114;2023-08-12T00:09:00;11.8;;;6.5;;
12721;SDS011;6425;50.316;8.114;2023-08-12T00:12:00;17;;;6.3;;
12721;SDS011;6425;50.316;8.114;2023-08-12T00:15:00;17;;;6.3;;
12721;SDS011;6425;50.316;8.114;2023-08-12T00:18:00;12.1;;;6.1;;
12721;SDS011;6425;50.316;8.114;2023-08-12T00:21:00;13.1;;;5.7;;
12721;SDS011;6425;50.316;8.114;2023-08-12T00:24:00;13.1;;;5.7;;
12721;SDS011;6425;50.316;8.114;2023-08-12T00:27:00;10.1;;;5.8;;
12721;SDS011;6425;50.316;8.114;2023-08-12T00:30:00;10.1;;;5.8;;
12721;SDS011;6425;50.316;8.114;2023-08-12T00:33:00;18.3;;;10.1;;
12721;SDS011;6425;50.316;8.114;2023-08-12T00:36:00;14.9;;;7.6;;
12721;SDS011;6425;50.316;8.114;2023-08-12T00:39:00;14.9;;;7.6;;
12721;SDS011;6425;50.316;8.114;2023-08-12T00:42:00;13.1;;;8.4;;
12721;SDS011;6425;50.316;8.114;2023-08-12T00:45:00;13.1;;;8.4;;
12721;SDS011;6425;50.316;8.114;2023-08-12T00:48:00;14.4;;;7.6;;
12721;SDS011;6425;50.316;8.114;2023-08-12T00:51:00;11.8;;;7.7;;
12721;SDS011;6425;50.316;8.114;2023-08-12T00:54:00;11.8;;;7.7;;
12721;SDS011;6425;50.316;8.114;2023-08-12T00:57:00;14.3;;;7.8;;
12721;SDS011;6425;50.316;8.114;2023-08-12T01:00:00;14.3;;;7.8;;
12721;SDS011;6425;50.316;8.114;2023-08-12T01:03:00;11.7;;;7.7;;
12721;SDS011;6425;50.316;8.114;2023-08-12T01:06:00;11.7;;;7.9;;
12721;SDS011;6425;50.316;8.114;2023-08-12T01:09:00;11.7;;;7.9;;
12721;SDS011;6425;50.316;8.114;2023-08-12T01:12:01;19.2;;;8.4;;
12721;SDS011;6425;50.316;8.114;2023-08-12T01:15:01;19.2;;;8.4;;
12721;SDS011;6425;50.316;8.114;2023-08-12T01:18:00;12.8;;;7.9;;
12721;SDS011;6425;50.316;8.114;2023-08-12T01:21:00;13.1;;;8.2;;
12721;SDS011;6425;50.316;8.114;2023-08-12T01:24:00;13.1;;;8.2;;
12721;SDS011;6425;50.316;8.114;2023-08-12T01:27:00;14.2;;;7.9;;
12721;SDS011;6425;50.316;8.114;2023-08-12T01:30:00;14.2;;;7.9;;
12721;SDS011;6425;50.316;8.114;2023-08-12T01:33:00;14.3;;;7.5;;
12721;SDS011;6425;50.316;8.114;2023-08-12T01:36:03;8.9;;;6.7;;
12721;SDS011;6425;50.316;8.114;2023-08-12T01:39:00;8.9;;;6.7;;
12721;SDS011;6425;50.316;8.114;2023-08-12T01:42:00;11.8;;;7.7;;
12721;SDS011;6425;50.316;8.114;2023-08-12T01:45:00;15.1;;;8.3;;
12721;SDS011;6425;50.316;8.114;2023-08-12T01:48:00;16.3;;;8.5;;
12721;SDS011;6425;50.316;8.114;2023-08-12T01:51:00;11.4;;;9;;
12721;SDS011;6425;50.316;8.114;2023-08-12T01:54:00;11.4;;;9;;
12721;SDS011;6425;50.316;8.114;2023-08-12T01:57:00;14.8;;;12.1;;
12721;SDS011;6425;50.316;8.114;2023-08-12T02:00:00;19.1;;;13.2;;
12721;SDS011;6425;50.316;8.114;2023-08-12T02:03:00;19.1;;;13.2;;
12721;SDS011;6425;50.316;8.114;2023-08-12T02:06:00;17.5;;;14.4;;
12721;SDS011;6425;50.316;8.114;2023-08-12T02:09:00;17.5;;;14.4;;
12721;SDS011;6425;50.316;8.114;2023-08-12T02:12:00;26.2;;;17.7;;
12721;SDS011;6425;50.316;8.114;2023-08-12T02:15:00;29;;;21;;
12721;SDS011;6425;50.316;8.114;2023-08-12T02:18:00;29;;;21;;
12721;SDS011;6425;50.316;8.114;2023-08-12T02:21:00;29.4;;;23;;
12721;SDS011;6425;50.316;8.114;2023-08-12T02:24:00;29.4;;;23;;
12721;SDS011;6425;50.316;8.114;2023-08-12T02:27:00;35.7;;;29.1;;
12721;SDS011;6425;50.316;8.114;2023-08-12T02:30:00;45.6;;;35.7;;
12721;SDS011;6425;50.316;8.114;2023-08-12T02:33:00;45.6;;;35.7;;
12721;SDS011;6425;50.316;8.114;2023-08-12T02:36:00;51.2;;;39.9;;
12721;SDS011;6425;50.316;8.114;2023-08-12T02:39:00;51.2;;;39.9;;
12721;SDS011;6425;50.316;8.114;2023-08-12T02:42:00;52.7;;;40.2;;
12721;SDS011;6425;50.316;8.114;2023-08-12T02:45:00;60.5;;;44.7;;
12721;SDS011;6425;50.316;8.114;2023-08-12T02:48:00;60.5;;;44.7;;
12721;SDS011;6425;50.316;8.114;2023-08-12T02:51:00;63.3;;;45.2;;
12721;SDS011;6425;50.316;8.114;2023-08-12T02:54:00;63.3;;;45.2;;
12721;SDS011;6425;50.316;8.114;2023-08-12T02:57:00;78.1;;;53.2;;
12721;SDS011;6425;50.316;8.114;2023-08-12T03:00:00;82.2;;;55.7;;
12721;SDS011;6425;50.316;8.114;2023-08-12T03:03:00;82.2;;;55.7;;
12721;SDS011;6425;50.316;8.114;2023-08-12T03:06:00;74.5;;;52.8;;
12721;SDS011;6425;50.316;8.114;2023-08-12T03:09:00;74.5;;;52.8;;
12721;SDS011;6425;50.316;8.114;2023-08-12T03:12:00;73.9;;;49.8;;
12721;SDS011;6425;50.316;8.114;2023-08-12T03:15:00;71.8;;;48.8;;
12721;SDS011;6425;50.316;8.114;2023-08-12T03:18:00;71.8;;;48.8;;
12721;SDS011;6425;50.316;8.114;2023-08-12T03:21:00;100.5;;;56.2;;
12721;SDS011;6425;50.316;8.114;2023-08-12T03:24:00;100.5;;;56.2;;
12721;SDS011;6425;50.316;8.114;2023-08-12T03:27:00;75.6;;;51.8;;
12721;SDS011;6425;50.316;8.114;2023-08-12T03:30:00;87.8;;;55.6;;
12721;SDS011;6425;50.316;8.114;2023-08-12T03:33:00;87.8;;;55.6;;
12721;SDS011;6425;50.316;8.114;2023-08-12T03:36:00;69.8;;;49.6;;
12721;SDS011;6425;50.316;8.114;2023-08-12T03:39:00;69.8;;;49.6;;
12721;SDS011;6425;50.316;8.114;2023-08-12T03:42:00;71.6;;;48.7;;
12721;SDS011;6425;50.316;8.114;2023-08-12T03:45:00;60.5;;;45.8;;
12721;SDS011;6425;50.316;8.114;2023-08-12T03:48:00;60.5;;;45.8;;
12721;SDS011;6425;50.316;8.114;2023-08-12T03:51:00;63.8;;;47.4;;
12721;SDS011;6425;50.316;8.114;2023-08-12T03:54:00;63.8;;;47.4;;
12721;SDS011;6425;50.316;8.114;2023-08-12T03:57:00;65.6;;;48.3;;
12721;SDS011;6425;50.316;8.114;2023-08-12T04:00:00;71;;;52;;
12721;SDS011;6425;50.316;8.114;2023-08-12T04:03:00;71;;;52;;
12721;SDS011;6425;50.316;8.114;2023-08-12T04:06:00;64.8;;;49.7;;
12721;SDS011;6425;50.316;8.114;2023-08-12T04:09:00;64.8;;;49.7;;
12721;SDS011;6425;50.316;8.114;2023-08-12T04:12:00;58.1;;;46;;
12721;SDS011;6425;50.316;8.114;2023-08-12T04:15:00;60.1;;;47.9;;
12721;SDS011;6425;50.316;8.114;2023-08-12T04:18:00;60.1;;;47.9;;
12721;SDS011;6425;50.316;8.114;2023-08-12T04:21:00;75.7;;;51.4;;
12721;SDS011;6425;50.316;8.114;2023-08-12T04:24:00;75.7;;;51.4;;
12721;SDS011;6425;50.316;8.114;2023-08-12T04:27:00;78.7;;;51.7;;
12721;SDS011;6425;50.316;8.114;2023-08-12T04:30:00;78.7;;;53;;
12721;SDS011;6425;50.316;8.114;2023-08-12T04:33:00;78.7;;;53;;
12721;SDS011;6425;50.316;8.114;2023-08-12T04:36:00;97.6;;;58.6;;
12721;SDS011;6425;50.316;8.114;2023-08-12T04:39:00;97.6;;;58.6;;
12721;SDS011;6425;50.316;8.114;2023-08-12T04:42:00;141.1;;;69.4;;
12721;SDS011;6425;50.316;8.114;2023-08-12T04:45:00;207.5;;;76.4;;
12721;SDS011;6425;50.316;8.114;2023-08-12T04:48:00;207.5;;;76.4;;
12721;SDS011;6425;50.316;8.114;2023-08-12T04:51:00;172.3;;;73.5;;
12721;SDS011;6425;50.316;8.114;2023-08-12T04:54:00;172.3;;;73.5;;
12721;SDS011;6425;50.316;8.114;2023-08-12T04:57:00;194.3;;;76.1;;
12721;SDS011;6425;50.316;8.114;2023-08-12T05:00:00;182.8;;;72;;
12721;SDS011;6425;50.316;8.114;2023-08-12T05:03:00;182.8;;;72;;
12721;SDS011;6425;50.316;8.114;2023-08-12T05:06:00;481.1;;;86.5;;
12721;SDS011;6425;50.316;8.114;2023-08-12T05:09:00;481.1;;;86.5;;
12721;SDS011;6425;50.316;8.114;2023-08-12T05:12:00;505.8;;;99.9;;
12721;SDS011;6425;50.316;8.114;2023-08-12T05:15:00;239.5;;;83.5;;
12721;SDS011;6425;50.316;8.114;2023-08-12T05:18:00;239.5;;;83.5;;
12721;SDS011;6425;50.316;8.114;2023-08-12T05:21:00;156.5;;;72.3;;
12721;SDS011;6425;50.316;8.114;2023-08-12T05:24:00;156.5;;;72.3;;
12721;SDS011;6425;50.316;8.114;2023-08-12T05:27:00;115.4;;;63.8;;
12721;SDS011;6425;50.316;8.114;2023-08-12T05:30:00;119.9;;;62.7;;
12721;SDS011;6425;50.316;8.114;2023-08-12T05:33:00;119.9;;;62.7;;
12721;SDS011;6425;50.316;8.114;2023-08-12T05:36:00;142.5;;;65.8;;
12721;SDS011;6425;50.316;8.114;2023-08-12T05:39:00;142.5;;;65.8;;
12721;SDS011;6425;50.316;8.114;2023-08-12T05:42:00;146;;;66.6;;
12721;SDS011;6425;50.316;8.114;2023-08-12T05:45:00;205.7;;;72;;
12721;SDS011;6425;50.316;8.114;2023-08-12T05:48:00;205.7;;;72;;
12721;SDS011;6425;50.316;8.114;2023-08-12T05:51:00;180;;;60.9;;
12721;SDS011;6425;50.316;8.114;2023-08-12T05:54:00;180;;;60.9;;
12721;SDS011;6425;50.316;8.114;2023-08-12T05:57:00;130.3;;;58.4;;
12721;SDS011;6425;50.316;8.114;2023-08-12T06:00:00;135.3;;;64.4;;
12721;SDS011;6425;50.316;8.114;2023-08-12T06:03:00;135.3;;;64.4;;
12721;SDS011;6425;50.316;8.114;2023-08-12T06:06:00;111.4;;;56.5;;
12721;SDS011;6425;50.316;8.114;2023-08-12T06:09:00;111.4;;;56.5;;
12721;SDS011;6425;50.316;8.114;2023-08-12T06:12:00;100.6;;;54.2;;
12721;SDS011;6425;50.316;8.114;2023-08-12T06:15:00;80.3;;;47.9;;
12721;SDS011;6425;50.316;8.114;2023-08-12T06:18:00;80.3;;;47.9;;
12721;SDS011;6425;50.316;8.114;2023-08-12T06:21:00;70.2;;;45.1;;
12721;SDS011;6425;50.316;8.114;2023-08-12T06:24:00;70.2;;;45.1;;
12721;SDS011;6425;50.316;8.114;2023-08-12T06:27:00;63.8;;;44;;
12721;SDS011;6425;50.316;8.114;2023-08-12T06:30:00;55.4;;;40.6;;
12721;SDS011;6425;50.316;8.114;2023-08-12T06:33:00;55.4;;;40.6;;
12721;SDS011;6425;50.316;8.114;2023-08-12T06:36:00;51.6;;;37.7;;
12721;SDS011;6425;50.316;8.114;2023-08-12T06:39:00;51.6;;;37.7;;
12721;SDS011;6425;50.316;8.114;2023-08-12T06:42:00;44.9;;;34.8;;
12721;SDS011;6425;50.316;8.114;2023-08-12T06:45:00;47.4;;;35;;
12721;SDS011;6425;50.316;8.114;2023-08-12T06:48:00;47.4;;;35;;
12721;SDS011;6425;50.316;8.114;2023-08-12T06:51:00;40.2;;;32.2;;
12721;SDS011;6425;50.316;8.114;2023-08-12T06:54:00;40.2;;;32.2;;
12721;SDS011;6425;50.316;8.114;2023-08-12T06:57:00;47.8;;;36.2;;
12721;SDS011;6425;50.316;8.114;2023-08-12T07:00:00;39.6;;;31;;
12721;SDS011;6425;50.316;8.114;2023-08-12T07:03:00;39.6;;;31;;
12721;SDS011;6425;50.316;8.114;2023-08-12T07:06:00;38.3;;;31.1;;
12721;SDS011;6425;50.316;8.114;2023-08-12T07:09:00;38.3;;;31.1;;
12721;SDS011;6425;50.316;8.114;2023-08-12T07:12:00;39;;;30.5;;
12721;SDS011;6425;50.316;8.114;2023-08-12T07:15:00;31.2;;;27;;
12721;SDS011;6425;50.316;8.114;2023-08-12T07:18:00;31.2;;;27;;
12721;SDS011;6425;50.316;8.114;2023-08-12T07:21:00;32.1;;;26.4;;
12721;SDS011;6425;50.316;8.114;2023-08-12T07:24:00;32.1;;;26.4;;
12721;SDS011;6425;50.316;8.114;2023-08-12T07:27:00;29.1;;;25;;
12721;SDS011;6425;50.316;8.114;2023-08-12T07:30:00;29.6;;;26.5;;
12721;SDS011;6425;50.316;8.114;2023-08-12T07:33:00;29.6;;;26.5;;
12721;SDS011;6425;50.316;8.114;2023-08-12T07:36:00;29.9;;;26.7;;
12721;SDS011;6425;50.316;8.114;2023-08-12T07:39:00;29.9;;;26.7;;
12721;SDS011;6425;50.316;8.114;2023-08-12T07:42:00;30.6;;;26.4;;
12721;SDS011;6425;50.316;8.114;2023-08-12T07:45:00;26.1;;;23.3;;
12721;SDS011;6425;50.316;8.114;2023-08-12T07:48:00;26.1;;;23.3;;
12721;SDS011;6425;50.316;8.114;2023-08-12T07:51:00;20.2;;;18.1;;
12721;SDS011;6425;50.316;8.114;2023-08-12T07:54:00;20.4;;;18.3;;
12721;SDS011;6425;50.316;8.114;2023-08-12T07:57:00;21.3;;;19.1;;
12721;SDS011;6425;50.316;8.114;2023-08-12T08:00:00;22;;;19.8;;
12721;SDS011;6425;50.316;8.114;2023-08-12T08:03:00;22;;;19.8;;
12721;SDS011;6425;50.316;8.114;2023-08-12T08:06:00;16.3;;;14;;
12721;SDS011;6425;50.316;8.114;2023-08-12T08:09:00;12.9;;;11.4;;
12721;SDS011;6425;50.316;8.114;2023-08-12T08:12:00;11.8;;;10.6;;
12721;SDS011;6425;50.316;8.114;2023-08-12T08:15:00;10.3;;;9.3;;
12721;SDS011;6425;50.316;8.114;2023-08-12T08:18:00;10.3;;;9.3;;
12721;SDS011;6425;50.316;8.114;2023-08-12T08:21:00;10.5;;;9.4;;
12721;SDS011;6425;50.316;8.114;2023-08-12T08:24:00;10.3;;;9.4;;
12721;SDS011;6425;50.316;8.114;2023-08-12T08:27:00;10.3;;;9.4;;
12721;SDS011;6425;50.316;8.114;2023-08-12T08:30:00;11.6;;;10.5;;
12721;SDS011;6425;50.316;8.114;2023-08-12T08:33:00;11.6;;;10.5;;
12721;SDS011;6425;50.316;8.114;2023-08-12T08:36:00;9.9;;;9;;
12721;SDS011;6425;50.316;8.114;2023-08-12T08:39:00;11.6;;;10.5;;
12721;SDS011;6425;50.316;8.114;2023-08-12T08:42:00;11.6;;;10.5;;
12721;SDS011;6425;50.316;8.114;2023-08-12T08:45:00;10.7;;;9.8;;
12721;SDS011;6425;50.316;8.114;2023-08-12T08:48:00;10.7;;;9.8;;
12721;SDS011;6425;50.316;8.114;2023-08-12T08:51:00;6.2;;;4.7;;
12721;SDS011;6425;50.316;8.114;2023-08-12T08:54:00;6.4;;;4.1;;
12721;SDS011;6425;50.316;8.114;2023-08-12T08:57:00;6.4;;;4.1;;
12721;SDS011;6425;50.316;8.114;2023-08-12T09:00:00;9.3;;;3.9;;
12721;SDS011;6425;50.316;8.114;2023-08-12T09:03:00;9.3;;;3.9;;
12721;SDS011;6425;50.316;8.114;2023-08-12T09:06:00;4.8;;;3.3;;
12721;SDS011;6425;50.316;8.114;2023-08-12T09:09:00;3.7;;;3.4;;
12721;SDS011;6425;50.316;8.114;2023-08-12T09:12:00;3.7;;;3.4;;
12721;SDS011;6425;50.316;8.114;2023-08-12T09:15:00;4.9;;;3.3;;
12721;SDS011;6425;50.316;8.114;2023-08-12T09:18:00;4.9;;;3.3;;
12721;SDS011;6425;50.316;8.114;2023-08-12T09:21:00;3.4;;;3.1;;
12721;SDS011;6425;50.316;8.114;2023-08-12T09:24:02;3.8;;;3.2;;
12721;SDS011;6425;50.316;8.114;2023-08-12T09:27:00;3.8;;;3.2;;
12721;SDS011;6425;50.316;8.114;2023-08-12T09:30:02;4.6;;;3.3;;
12721;SDS011;6425;50.316;8.114;2023-08-12T09:33:00;4.6;;;3.3;;
12721;SDS011;6425;50.316;8.114;2023-08-12T09:36:00;4.6;;;3;;
12721;SDS011;6425;50.316;8.114;2023-08-12T09:39:00;5.1;;;3;;
12721;SDS011;6425;50.316;8.114;2023-08-12T09:42:00;5.1;;;3;;
12721;SDS011;6425;50.316;8.114;2023-08-12T09:45:00;3.2;;;2.9;;
12721;SDS011;6425;50.316;8.114;2023-08-12T09:48:00;3.2;;;2.9;;
12721;SDS011;6425;50.316;8.114;2023-08-12T09:51:00;2.8;;;2.5;;
12721;SDS011;6425;50.316;8.114;2023-08-12T09:54:00;4.2;;;2.4;;
12721;SDS011;6425;50.316;8.114;2023-08-12T09:57:00;4.2;;;2.4;;
12721;SDS011;6425;50.316;8.114;2023-08-12T10:00:00;2.2;;;2;;
12721;SDS011;6425;50.316;8.114;2023-08-12T10:03:00;2.2;;;2;;
12721;SDS011;6425;50.316;8.114;2023-08-12T10:06:00;3.2;;;2.3;;
12721;SDS011;6425;50.316;8.114;2023-08-12T10:09:00;2.3;;;2.1;;
12721;SDS011;6425;50.316;8.114;2023-08-12T10:12:00;2.3;;;2.1;;
12721;SDS011;6425;50.316;8.114;2023-08-12T10:15:00;1.7;;;1.5;;
12721;SDS011;6425;50.316;8.114;2023-08-12T10:18:00;1.7;;;1.5;;
12721;SDS011;6425;50.316;8.114;2023-08-12T10:21:00;4.5;;;1.8;;
12721;SDS011;6425;50.316;8.114;2023-08-12T10:24:00;1.7;;;1.4;;
12721;SDS011;6425;50.316;8.114;2023-08-12T10:27:00;1.7;;;1.4;;
12721;SDS011;6425;50.316;8.114;2023-08-12T10:30:02;3;;;1.9;;
12721;SDS011;6425;50.316;8.114;2023-08-12T10:33:00;3;;;1.9;;
12721;SDS011;6425;50.316;8.114;2023-08-12T10:36:00;3.1;;;2.3;;
12721;SDS011;6425;50.316;8.114;2023-08-12T10:39:00;3;;;2.4;;
12721;SDS011;6425;50.316;8.114;2023-08-12T10:42:00;3;;;2.4;;
12721;SDS011;6425;50.316;8.114;2023-08-12T10:45:00;2.5;;;2.1;;
12721;SDS011;6425;50.316;8.114;2023-08-12T10:48:09;2.5;;;2.1;;
12721;SDS011;6425;50.316;8.114;2023-08-12T10:51:00;3.9;;;2.9;;
12721;SDS011;6425;50.316;8.114;2023-08-12T10:54:09;4.8;;;2.4;;
12721;SDS011;6425;50.316;8.114;2023-08-12T10:57:07;4.8;;;2.4;;
12721;SDS011;6425;50.316;8.114;2023-08-12T11:00:00;2.6;;;2.1;;
12721;SDS011;6425;50.316;8.114;2023-08-12T11:03:00;2.6;;;2.1;;
12721;SDS011;6425;50.316;8.114;2023-08-12T11:06:00;2.6;;;2.2;;
12721;SDS011;6425;50.316;8.114;2023-08-12T11:09:00;2.8;;;2.3;;
12721;SDS011;6425;50.316;8.114;2023-08-12T11:12:00;2.8;;;2.3;;
12721;SDS011;6425;50.316;8.114;2023-08-12T11:15:00;2.6;;;2.4;;
12721;SDS011;6425;50.316;8.114;2023-08-12T11:18:01;2.6;;;2.4;;
12721;SDS011;6425;50.316;8.114;2023-08-12T11:21:00;2.9;;;2.6;;
12721;SDS011;6425;50.316;8.114;2023-08-12T11:24:00;3.5;;;2.9;;
12721;SDS011;6425;50.316;8.114;2023-08-12T11:27:00;3.5;;;2.9;;
12721;SDS011;6425;50.316;8.114;2023-08-12T11:30:00;3.2;;;3;;
12721;SDS011;6425;50.316;8.114;2023-08-12T11:33:00;3.2;;;3;;
12721;SDS011;6425;50.316;8.114;2023-08-12T11:36:00;3.7;;;3.4;;
12721;SDS011;6425;50.316;8.114;2023-08-12T11:39:00;3.8;;;3.5;;
12721;SDS011;6425;50.316;8.114;2023-08-12T11:42:00;3.8;;;3.5;;
12721;SDS011;6425;50.316;8.114;2023-08-12T11:45:00;3.2;;;3;;
12721;SDS011;6425;50.316;8.114;2023-08-12T11:48:00;3.2;;;3;;
12721;SDS011;6425;50.316;8.114;2023-08-12T11:51:00;3.5;;;3.2;;
12721;SDS011;6425;50.316;8.114;2023-08-12T11:54:00;3.4;;;2.9;;
12721;SDS011;6425;50.316;8.114;2023-08-12T11:57:00;3.4;;;2.9;;
12721;SDS011;6425;50.316;8.114;2023-08-12T12:00:00;3.4;;;3;;
12721;SDS011;6425;50.316;8.114;2023-08-12T12:03:00;3.4;;;3;;
12721;SDS011;6425;50.316;8.114;2023-08-12T12:06:00;4.9;;;3.7;;
12721;SDS011;6425;50.316;8.114;2023-08-12T12:09:00;3.1;;;2.6;;
12721;SDS011;6425;50.316;8.114;2023-08-12T12:12:00;3.1;;;2.6;;
12721;SDS011;6425;50.316;8.114;2023-08-12T12:15:00;3;;;2.5;;
12721;SDS011;6425;50.316;8.114;2023-08-12T12:18:00;3;;;2.5;;
12721;SDS011;6425;50.316;8.114;2023-08-12T12:21:00;2.9;;;2.6;;
12721;SDS011;6425;50.316;8.114;2023-08-12T12:24:00;2.6;;;2.5;;
12721;SDS011;6425;50.316;8.114;2023-08-12T12:27:00;2.6;;;2.5;;
12721;SDS011;6425;50.316;8.114;2023-08-12T12:30:00;2.9;;;2.7;;
12721;SDS011;6425;50.316;8.114;2023-08-12T12:33:00;2.9;;;2.7;;
12721;SDS011;6425;50.316;8.114;2023-08-12T12:36:00;2;;;1.8;;
12721;SDS011;6425;50.316;8.114;2023-08-12T12:39:00;3.3;;;1.9;;
12721;SDS011;6425;50.316;8.114;2023-08-12T12:42:00;3.3;;;1.9;;
12721;SDS011;6425;50.316;8.114;2023-08-12T12:45:00;2.3;;;2;;
12721;SDS011;6425;50.316;8.114;2023-08-12T12:48:00;2.3;;;2;;
12721;SDS011;6425;50.316;8.114;2023-08-12T12:51:00;2.9;;;2;;
12721;SDS011;6425;50.316;8.114;2023-08-12T12:54:00;3.2;;;1.8;;
12721;SDS011;6425;50.316;8.114;2023-08-12T12:57:00;3.2;;;1.8;;
12721;SDS011;6425;50.316;8.114;2023-08-12T13:00:00;2.5;;;1.7;;
12721;SDS011;6425;50.316;8.114;2023-08-12T13:03:00;2.5;;;1.7;;
12721;SDS011;6425;50.316;8.114;2023-08-12T13:06:00;1.9;;;1.7;;
12721;SDS011;6425;50.316;8.114;2023-08-12T13:09:00;2.1;;;1.7;;
12721;SDS011;6425;50.316;8.114;2023-08-12T13:12:00;2.1;;;1.7;;
12721;SDS011;6425;50.316;8.114;2023-08-12T13:15:00;2.8;;;1.8;;
12721;SDS011;6425;50.316;8.114;2023-08-12T13:18:00;2.8;;;1.8;;
12721;SDS011;6425;50.316;8.114;2023-08-12T13:21:00;3.3;;;1.9;;
12721;SDS011;6425;50.316;8.114;2023-08-12T13:24:00;1.7;;;1.6;;
12721;SDS011;6425;50.316;8.114;2023-08-12T13:27:00;1.7;;;1.6;;
12721;SDS011;6425;50.316;8.114;2023-08-12T13:30:00;1.7;;;1.6;;
12721;SDS011;6425;50.316;8.114;2023-08-12T13:33:00;1.7;;;1.6;;
12721;SDS011;6425;50.316;8.114;2023-08-12T13:36:00;3.2;;;1.4;;
12721;SDS011;6425;50.316;8.114;2023-08-12T13:39:00;1.7;;;1.6;;
12721;SDS011;6425;50.316;8.114;2023-08-12T13:42:00;1.7;;;1.6;;
12721;SDS011;6425;50.316;8.114;2023-08-12T13:45:00;3.1;;;1.4;;
12721;SDS011;6425;50.316;8.114;2023-08-12T13:48:00;3.1;;;1.4;;
12721;SDS011;6425;50.316;8.114;2023-08-12T13:51:00;1.9;;;1.8;;
12721;SDS011;6425;50.316;8.114;2023-08-12T13:54:00;2.3;;;2.1;;
12721;SDS011;6425;50.316;8.114;2023-08-12T13:57:00;2.3;;;2.1;;
12721;SDS011;6425;50.316;8.114;2023-08-12T14:00:00;2.8;;;2.2;;
12721;SDS011;6425;50.316;8.114;2023-08-12T14:03:00;2.8;;;2.2;;
12721;SDS011;6425;50.316;8.114;2023-08-12T14:06:00;3.1;;;2.1;;
12721;SDS011;6425;50.316;8.114;2023-08-12T14:09:00;2.4;;;2.2;;
12721;SDS011;6425;50.316;8.114;2023-08-12T14:12:00;2.4;;;2.2;;
12721;SDS011;6425;50.316;8.114;2023-08-12T14:15:00;2.9;;;2.3;;
12721;SDS011;6425;50.316;8.114;2023-08-12T14:18:00;2.9;;;2.3;;
12721;SDS011;6425;50.316;8.114;2023-08-12T14:21:00;2.9;;;2.3;;
12721;SDS011;6425;50.316;8.114;2023-08-12T14:24:00;4.7;;;2.1;;
12721;SDS011;6425;50.316;8.114;2023-08-12T14:27:00;4.7;;;2.1;;
12721;SDS011;6425;50.316;8.114;2023-08-12T14:30:00;3.6;;;2.6;;
12721;SDS011;6425;50.316;8.114;2023-08-12T14:33:00;3.6;;;2.6;;
12721;SDS011;6425;50.316;8.114;2023-08-12T14:36:00;2.5;;;1.9;;
12721;SDS011;6425;50.316;8.114;2023-08-12T14:39:00;3.1;;;1.8;;
12721;SDS011;6425;50.316;8.114;2023-08-12T14:42:00;3.1;;;1.8;;
12721;SDS011;6425;50.316;8.114;2023-08-12T14:45:00;2.1;;;1.8;;
12721;SDS011;6425;50.316;8.114;2023-08-12T14:48:00;2.1;;;1.8;;
12721;SDS011;6425;50.316;8.114;2023-08-12T14:51:00;2;;;1.6;;
12721;SDS011;6425;50.316;8.114;2023-08-12T14:54:00;1.7;;;1.3;;
12721;SDS011;6425;50.316;8.114;2023-08-12T14:57:00;1.7;;;1.3;;
12721;SDS011;6425;50.316;8.114;2023-08-12T15:00:00;2.8;;;1.5;;
12721;SDS011;6425;50.316;8.114;2023-08-12T15:03:00;2.8;;;1.5;;
12721;SDS011;6425;50.316;8.114;2023-08-12T15:06:00;2.2;;;1.2;;
12721;SDS011;6425;50.316;8.114;2023-08-12T15:09:00;1.6;;;1.2;;
12721;SDS011;6425;50.316;8.114;2023-08-12T15:12:00;1.6;;;1.2;;
12721;SDS011;6425;50.316;8.114;2023-08-12T15:15:00;2;;;1.2;;
12721;SDS011;6425;50.316;8.114;2023-08-12T15:18:00;2;;;1.2;;
12721;SDS011;6425;50.316;8.114;2023-08-12T15:21:00;1.5;;;1;;
12721;SDS011;6425;50.316;8.114;2023-08-12T15:24:00;1.5;;;1;;
12721;SDS011;6425;50.316;8.114;2023-08-12T15:27:00;1.5;;;1;;
12721;SDS011;6425;50.316;8.114;2023-08-12T15:30:00;1.6;;;1;;
12721;SDS011;6425;50.316;8.114;2023-08-12T15:33:00;1.6;;;1;;
12721;SDS011;6425;50.316;8.114;2023-08-12T15:36:00;2.6;;;1.1;;
12721;SDS011;6425;50.316;8.114;2023-08-12T15:39:00;1.1;;;0.9;;
12721;SDS011;6425;50.316;8.114;2023-08-12T15:42:00;1.1;;;0.9;;
12721;SDS011;6425;50.316;8.114;2023-08-12T15:45:00;1.6;;;0.9;;
12721;SDS011;6425;50.316;8.114;2023-08-12T15:48:00;1.6;;;0.9;;
12721;SDS011;6425;50.316;8.114;2023-08-12T15:51:00;1.4;;;0.9;;
12721;SDS011;6425;50.316;8.114;2023-08-12T15:54:00;1.5;;;0.6;;
12721;SDS011;6425;50.316;8.114;2023-08-12T15:57:00;1.5;;;0.6;;
12721;SDS011;6425;50.316;8.114;2023-08-12T16:00:00;2.3;;;0.8;;
12721;SDS011;6425;50.316;8.114;2023-08-12T16:03:00;2.3;;;0.8;;
12721;SDS011;6425;50.316;8.114;2023-08-12T16:06:00;1.5;;;0.7;;
12721;SDS011;6425;50.316;8.114;2023-08-12T16:09:00;1.3;;;0.9;;
12721;SDS011;6425;50.316;8.114;2023-08-12T16:12:00;1.3;;;0.9;;
12721;SDS011;6425;50.316;8.114;2023-08-12T16:15:00;1.8;;;0.9;;
12721;SDS011;6425;50.316;8.114;2023-08-12T16:18:00;1.8;;;0.9;;
12721;SDS011;6425;50.316;8.114;2023-08-12T16:21:00;2.1;;;1;;
12721;SDS011;6425;50.316;8.114;2023-08-12T16:24:00;1.5;;;1.3;;
12721;SDS011;6425;50.316;8.114;2023-08-12T16:27:00;1.5;;;1.3;;
12721;SDS011;6425;50.316;8.114;2023-08-12T16:30:00;1.9;;;1.4;;
12721;SDS011;6425;50.316;8.114;2023-08-12T16:33:00;1.9;;;1.4;;
12721;SDS011;6425;50.316;8.114;2023-08-12T16:36:00;2.8;;;1.4;;
12721;SDS011;6425;50.316;8.114;2023-08-12T16:39:00;2.7;;;0.9;;
12721;SDS011;6425;50.316;8.114;2023-08-12T16:42:00;2.7;;;0.9;;
12721;SDS011;6425;50.316;8.114;2023-08-12T16:45:00;1.9;;;0.9;;
12721;SDS011;6425;50.316;8.114;2023-08-12T16:48:00;1.9;;;0.9;;
12721;SDS011;6425;50.316;8.114;2023-08-12T16:51:00;1.1;;;1;;
12721;SDS011;6425;50.316;8.114;2023-08-12T16:54:00;2.9;;;1.1;;
12721;SDS011;6425;50.316;8.114;2023-08-12T16:57:00;2.9;;;1.1;;
12721;SDS011;6425;50.316;8.114;2023-08-12T17:00:00;2.6;;;1.1;;
12721;SDS011;6425;50.316;8.114;2023-08-12T17:03:00;2.6;;;1.1;;
12721;SDS011;6425;50.316;8.114;2023-08-12T17:06:00;2;;;1.1;;
12721;SDS011;6425;50.316;8.114;2023-08-12T17:09:00;2.1;;;1;;
12721;SDS011;6425;50.316;8.114;2023-08-12T17:12:00;2.1;;;1;;
12721;SDS011;6425;50.316;8.114;2023-08-12T17:15:00;1.5;;;1;;
12721;SDS011;6425;50.316;8.114;2023-08-12T17:18:01;1.6;;;0.9;;
12721;SDS011;6425;50.316;8.114;2023-08-12T17:21:00;2;;;0.8;;
12721;SDS011;6425;50.316;8.114;2023-08-12T17:24:00;1.4;;;0.8;;
12721;SDS011;6425;50.316;8.114;2023-08-12T17:27:00;1.4;;;0.8;;
12721;SDS011;6425;50.316;8.114;2023-08-12T17:30:00;2.2;;;0.9;;
12721;SDS011;6425;50.316;8.114;2023-08-12T17:33:00;1.7;;;0.9;;
12721;SDS011;6425;50.316;8.114;2023-08-12T17:36:00;1.6;;;0.9;;
12721;SDS011;6425;50.316;8.114;2023-08-12T17:39:00;1.6;;;0.8;;
12721;SDS011;6425;50.316;8.114;2023-08-12T17:42:00;1.6;;;0.8;;
12721;SDS011;6425;50.316;8.114;2023-08-12T17:45:00;2.6;;;0.9;;
12721;SDS011;6425;50.316;8.114;2023-08-12T17:48:00;2.2;;;0.9;;
12721;SDS011;6425;50.316;8.114;2023-08-12T17:51:00;2.2;;;0.9;;
12721;SDS011;6425;50.316;8.114;2023-08-12T17:54:00;1.5;;;0.7;;
12721;SDS011;6425;50.316;8.114;2023-08-12T17:57:00;1.5;;;0.7;;
12721;SDS011;6425;50.316;8.114;2023-08-12T18:00:00;2;;;0.9;;
12721;SDS011;6425;50.316;8.114;2023-08-12T18:03:00;1;;;0.8;;
12721;SDS011;6425;50.316;8.114;2023-08-12T18:06:00;1;;;0.8;;
12721;SDS011;6425;50.316;8.114;2023-08-12T18:09:00;1.7;;;1;;
12721;SDS011;6425;50.316;8.114;2023-08-12T18:12:00;1.7;;;1;;
12721;SDS011;6425;50.316;8.114;2023-08-12T18:15:00;2.3;;;1.1;;
12721;SDS011;6425;50.316;8.114;2023-08-12T18:18:00;2.5;;;0.7;;
12721;SDS011;6425;50.316;8.114;2023-08-12T18:21:00;2.5;;;0.7;;
12721;SDS011;6425;50.316;8.114;2023-08-12T18:24:00;2.1;;;0.9;;
12721;SDS011;6425;50.316;8.114;2023-08-12T18:27:00;2.1;;;0.9;;
12721;SDS011;6425;50.316;8.114;2023-08-12T18:30:00;1.9;;;0.9;;
12721;SDS011;6425;50.316;8.114;2023-08-12T18:33:00;0.8;;;0.7;;
12721;SDS011;6425;50.316;8.114;2023-08-12T18:36:00;0.8;;;0.7;;
12721;SDS011;6425;50.316;8.114;2023-08-12T18:39:00;1.3;;;0.9;;
12721;SDS011;6425;50.316;8.114;2023-08-12T18:42:00;1.3;;;0.9;;
12721;SDS011;6425;50.316;8.114;2023-08-12T18:45:00;2.1;;;1;;